Terminal Aerodrome Forecast
Issued by NWS Norman, OK

Current Version | Previous Version | Text Only | Print | Product List | Glossary On
Versions: 1 2 3 4 5 6 7 8 9 10 11 12
000
FTUS44 KOUN 281120
TAFOKC
TAF
KOKC 281120Z 2812/2912 16013KT P6SM SCT250
     FM281500 18017G27KT P6SM SCT050
     FM290300 16014KT P6SM SCT250=

USA.gov is the U.S. government's official web portal to all federal, state and local government web resources and services.